sensor_id;sensor_type;location;lat;lon;timestamp;pressure;altitude;pressure_sealevel;temperature;humidity
40612;BME280;26317;44.894;20.286;2022-10-31T00:02:56;101446.03;;;13.31;98.73
40612;BME280;26317;44.894;20.286;2022-10-31T00:05:30;101439.03;;;13.30;98.68
40612;BME280;26317;44.894;20.286;2022-10-31T00:08:04;101441.72;;;13.30;98.74
40612;BME280;26317;44.894;20.286;2022-10-31T00:10:40;101425.78;;;13.24;98.94
40612;BME280;26317;44.894;20.286;2022-10-31T00:13:14;101435.53;;;13.30;98.87
40612;BME280;26317;44.894;20.286;2022-10-31T00:15:48;101437.16;;;13.31;98.88
40612;BME280;26317;44.894;20.286;2022-10-31T00:18:18;101439.28;;;13.34;98.82
40612;BME280;26317;44.894;20.286;2022-10-31T00:21:10;101430.66;;;13.32;98.72
40612;BME280;26317;44.894;20.286;2022-10-31T00:23:45;101433.34;;;13.32;98.37
40612;BME280;26317;44.894;20.286;2022-10-31T00:26:31;101442.53;;;13.31;97.13
40612;BME280;26317;44.894;20.286;2022-10-31T00:29:02;101440.91;;;13.30;97.56
40612;BME280;26317;44.894;20.286;2022-10-31T00:31:35;101446.53;;;13.28;97.71
40612;BME280;26317;44.894;20.286;2022-10-31T00:34:16;101444.97;;;13.27;97.98
40612;BME280;26317;44.894;20.286;2022-10-31T00:36:51;101420.88;;;13.06;98.00
40612;BME280;26317;44.894;20.286;2022-10-31T00:39:22;101448.44;;;13.28;97.50
40612;BME280;26317;44.894;20.286;2022-10-31T00:42:03;101452.47;;;13.20;97.13
40612;BME280;26317;44.894;20.286;2022-10-31T00:44:38;101445.47;;;13.14;97.48
40612;BME280;26317;44.894;20.286;2022-10-31T00:47:15;101447.53;;;13.02;97.83
40612;BME280;26317;44.894;20.286;2022-10-31T00:49:50;101452.13;;;13.02;98.14
40612;BME280;26317;44.894;20.286;2022-10-31T00:52:38;101449.69;;;13.00;99.23
40612;BME280;26317;44.894;20.286;2022-10-31T00:55:15;101450.75;;;12.99;99.11
40612;BME280;26317;44.894;20.286;2022-10-31T00:58:01;101460.44;;;13.00;98.90
40612;BME280;26317;44.894;20.286;2022-10-31T01:00:36;101454.28;;;13.05;99.41
40612;BME280;26317;44.894;20.286;2022-10-31T01:03:19;101463.16;;;13.05;99.05
40612;BME280;26317;44.894;20.286;2022-10-31T01:06:08;101447.25;;;12.94;99.33
40612;BME280;26317;44.894;20.286;2022-10-31T01:08:49;101450.16;;;12.87;99.45
40612;BME280;26317;44.894;20.286;2022-10-31T01:11:22;101455.84;;;12.96;99.42
40612;BME280;26317;44.894;20.286;2022-10-31T01:14:05;101453.44;;;12.94;100.00
40612;BME280;26317;44.894;20.286;2022-10-31T01:16:39;101446.97;;;12.95;100.00
40612;BME280;26317;44.894;20.286;2022-10-31T01:19:18;101455.88;;;13.01;100.00
40612;BME280;26317;44.894;20.286;2022-10-31T01:22:10;101451.03;;;13.03;100.00
40612;BME280;26317;44.894;20.286;2022-10-31T01:24:59;101452.44;;;13.10;100.00
40612;BME280;26317;44.894;20.286;2022-10-31T01:27:40;101462.38;;;13.10;100.00
40612;BME280;26317;44.894;20.286;2022-10-31T01:30:14;101453.19;;;13.01;99.23
40612;BME280;26317;44.894;20.286;2022-10-31T01:32:46;101465.03;;;13.05;99.44
40612;BME280;26317;44.894;20.286;2022-10-31T01:35:25;101460.19;;;13.02;98.93
40612;BME280;26317;44.894;20.286;2022-10-31T01:37:57;101455.31;;;12.99;99.21
40612;BME280;26317;44.894;20.286;2022-10-31T01:40:47;101451.03;;;12.98;99.05
40612;BME280;26317;44.894;20.286;2022-10-31T01:43:20;101448.88;;;13.00;99.63
40612;BME280;26317;44.894;20.286;2022-10-31T01:46:02;101434.84;;;12.93;99.39
40612;BME280;26317;44.894;20.286;2022-10-31T01:48:45;101444.53;;;12.99;99.66
40612;BME280;26317;44.894;20.286;2022-10-31T01:51:28;101439.47;;;13.02;99.78
40612;BME280;26317;44.894;20.286;2022-10-31T01:54:11;101433.78;;;12.99;99.95
40612;BME280;26317;44.894;20.286;2022-10-31T01:56:51;101446.97;;;13.00;99.95
40612;BME280;26317;44.894;20.286;2022-10-31T01:59:28;101423.25;;;12.92;99.98
40612;BME280;26317;44.894;20.286;2022-10-31T02:02:08;101433.00;;;12.98;99.48
40612;BME280;26317;44.894;20.286;2022-10-31T02:04:46;101432.69;;;13.00;99.77
40612;BME280;26317;44.894;20.286;2022-10-31T02:07:24;101424.88;;;12.93;99.82
40612;BME280;26317;44.894;20.286;2022-10-31T02:10:00;101423.81;;;12.99;99.66
40612;BME280;26317;44.894;20.286;2022-10-31T02:12:50;101426.25;;;13.01;99.17
40612;BME280;26317;44.894;20.286;2022-10-31T02:15:39;101425.16;;;12.97;99.12
40612;BME280;26317;44.894;20.286;2022-10-31T02:18:13;101421.38;;;12.93;99.60
40612;BME280;26317;44.894;20.286;2022-10-31T02:21:06;101427.28;;;12.95;99.58
40612;BME280;26317;44.894;20.286;2022-10-31T02:30:29;101428.91;;;12.96;99.46
40612;BME280;26317;44.894;20.286;2022-10-31T02:33:31;101424.34;;;12.96;99.25
40612;BME280;26317;44.894;20.286;2022-10-31T02:36:11;101385.78;;;12.75;99.37
40612;BME280;26317;44.894;20.286;2022-10-31T02:39:06;101424.59;;;12.95;99.36
40612;BME280;26317;44.894;20.286;2022-10-31T02:41:51;101421.91;;;12.95;98.70
40612;BME280;26317;44.894;20.286;2022-10-31T02:44:35;101420.84;;;12.96;98.60
40612;BME280;26317;44.894;20.286;2022-10-31T02:47:18;101389.53;;;12.74;98.67
40612;BME280;26317;44.894;20.286;2022-10-31T02:50:08;101421.41;;;12.98;98.18
40612;BME280;26317;44.894;20.286;2022-10-31T02:52:43;101419.75;;;12.91;98.48
40612;BME280;26317;44.894;20.286;2022-10-31T02:58:53;101431.31;;;12.87;98.76
40612;BME280;26317;44.894;20.286;2022-10-31T03:01:51;101431.59;;;12.85;98.92
40612;BME280;26317;44.894;20.286;2022-10-31T03:04:38;101437.22;;;12.84;99.35
40612;BME280;26317;44.894;20.286;2022-10-31T03:07:31;101442.38;;;12.90;100.00
40612;BME280;26317;44.894;20.286;2022-10-31T03:10:43;101441.28;;;12.91;100.00
40612;BME280;26317;44.894;20.286;2022-10-31T03:13:32;101423.50;;;12.80;100.00
40612;BME280;26317;44.894;20.286;2022-10-31T03:16:11;101452.63;;;12.94;100.00
40612;BME280;26317;44.894;20.286;2022-10-31T03:18:52;101451.00;;;12.93;100.00
40612;BME280;26317;44.894;20.286;2022-10-31T03:21:32;101412.94;;;12.74;100.00
40612;BME280;26317;44.894;20.286;2022-10-31T03:24:27;101448.56;;;12.91;99.88
40612;BME280;26317;44.894;20.286;2022-10-31T03:27:07;101455.03;;;12.95;100.00
40612;BME280;26317;44.894;20.286;2022-10-31T03:29:50;101454.47;;;12.88;99.35
40612;BME280;26317;44.894;20.286;2022-10-31T03:32:38;101453.66;;;12.87;98.85
40612;BME280;26317;44.894;20.286;2022-10-31T03:35:25;101462.53;;;12.83;99.13
40612;BME280;26317;44.894;20.286;2022-10-31T03:38:05;101453.09;;;12.80;98.96
40612;BME280;26317;44.894;20.286;2022-10-31T03:41:00;101455.78;;;12.75;99.23
40612;BME280;26317;44.894;20.286;2022-10-31T03:43:42;101454.75;;;12.81;99.55
40612;BME280;26317;44.894;20.286;2022-10-31T03:46:18;101462.00;;;12.86;99.43
40612;BME280;26317;44.894;20.286;2022-10-31T03:49:04;101462.81;;;12.86;99.78
40612;BME280;26317;44.894;20.286;2022-10-31T03:51:42;101436.41;;;12.83;99.83
40612;BME280;26317;44.894;20.286;2022-10-31T03:54:54;101461.22;;;12.90;99.69
40612;BME280;26317;44.894;20.286;2022-10-31T03:57:50;101457.69;;;12.90;99.89
40612;BME280;26317;44.894;20.286;2022-10-31T04:00:27;101467.16;;;12.93;99.98
40612;BME280;26317;44.894;20.286;2022-10-31T04:03:09;101451.81;;;12.93;100.00
40612;BME280;26317;44.894;20.286;2022-10-31T04:05:50;101452.09;;;12.97;100.00
40612;BME280;26317;44.894;20.286;2022-10-31T04:08:30;101458.53;;;12.96;99.77
40612;BME280;26317;44.894;20.286;2022-10-31T04:11:13;101455.84;;;12.96;99.42
40612;BME280;26317;44.894;20.286;2022-10-31T04:13:53;101457.19;;;12.93;99.14
40612;BME280;26317;44.894;20.286;2022-10-31T04:16:42;101458.81;;;12.94;98.76
40612;BME280;26317;44.894;20.286;2022-10-31T04:19:37;101455.31;;;12.94;99.08
40612;BME280;26317;44.894;20.286;2022-10-31T04:22:16;101462.31;;;12.89;99.24
40612;BME280;26317;44.894;20.286;2022-10-31T04:25:02;101470.09;;;12.91;99.03
40612;BME280;26317;44.894;20.286;2022-10-31T04:27:47;101466.06;;;12.88;98.61
40612;BME280;26317;44.894;20.286;2022-10-31T04:30:33;101476.84;;;12.88;99.26
40612;BME280;26317;44.894;20.286;2022-10-31T04:33:09;101473.31;;;12.88;99.54
40612;BME280;26317;44.894;20.286;2022-10-31T04:35:56;101473.06;;;12.89;99.91
40612;BME280;26317;44.894;20.286;2022-10-31T04:38:32;101471.44;;;12.88;99.72
40612;BME280;26317;44.894;20.286;2022-10-31T04:41:17;101474.16;;;12.88;99.79
40612;BME280;26317;44.894;20.286;2022-10-31T04:44:08;101426.31;;;12.54;100.00
40612;BME280;26317;44.894;20.286;2022-10-31T04:46:55;101441.75;;;12.73;100.00
40612;BME280;26317;44.894;20.286;2022-10-31T04:49:28;101467.16;;;12.93;99.52
40612;BME280;26317;44.894;20.286;2022-10-31T04:52:01;101473.63;;;12.97;99.25
40612;BME280;26317;44.894;20.286;2022-10-31T04:54:43;101456.91;;;12.95;99.19
40612;BME280;26317;44.894;20.286;2022-10-31T04:57:40;101473.63;;;12.97;99.16
40612;BME280;26317;44.894;20.286;2022-10-31T05:00:25;101477.97;;;12.98;99.50
40612;BME280;26317;44.894;20.286;2022-10-31T05:03:04;101470.38;;;12.95;99.00
40612;BME280;26317;44.894;20.286;2022-10-31T05:05:41;101469.59;;;12.94;98.79
40612;BME280;26317;44.894;20.286;2022-10-31T05:08:18;101483.34;;;12.98;98.84
40612;BME280;26317;44.894;20.286;2022-10-31T05:10:52;101482.25;;;12.94;98.99
40612;BME280;26317;44.894;20.286;2022-10-31T05:13:33;101481.13;;;12.84;99.25
40612;BME280;26317;44.894;20.286;2022-10-31T05:16:32;101481.69;;;12.91;100.00
40612;BME280;26317;44.894;20.286;2022-10-31T05:19:23;101484.94;;;12.94;100.00
40612;BME280;26317;44.894;20.286;2022-10-31T05:22:17;101486.53;;;12.95;100.00
40612;BME280;26317;44.894;20.286;2022-10-31T05:24:54;101461.97;;;12.76;100.00
40612;BME280;26317;44.894;20.286;2022-10-31T05:27:41;101484.41;;;12.97;100.00
40612;BME280;26317;44.894;20.286;2022-10-31T05:30:28;101490.31;;;12.99;100.00
40612;BME280;26317;44.894;20.286;2022-10-31T05:33:01;101487.63;;;12.99;100.00
40612;BME280;26317;44.894;20.286;2022-10-31T05:36:09;101490.06;;;13.00;100.00
40612;BME280;26317;44.894;20.286;2022-10-31T05:38:51;101482.78;;;12.96;100.00
40612;BME280;26317;44.894;20.286;2022-10-31T05:41:48;101461.72;;;12.82;100.00
40612;BME280;26317;44.894;20.286;2022-10-31T05:44:30;101493.00;;;12.99;100.00
40612;BME280;26317;44.894;20.286;2022-10-31T05:47:17;101492.50;;;12.97;100.00
40612;BME280;26317;44.894;20.286;2022-10-31T05:50:10;101502.72;;;13.00;100.00
40612;BME280;26317;44.894;20.286;2022-10-31T05:52:56;101507.03;;;13.01;100.00
40612;BME280;26317;44.894;20.286;2022-10-31T05:55:49;101503.81;;;13.04;100.00
40612;BME280;26317;44.894;20.286;2022-10-31T05:58:27;101505.41;;;13.00;100.00
40612;BME280;26317;44.894;20.286;2022-10-31T06:01:18;101506.16;;;12.90;100.00
40612;BME280;26317;44.894;20.286;2022-10-31T06:03:59;101509.16;;;12.88;100.00
40612;BME280;26317;44.894;20.286;2022-10-31T06:06:51;101514.53;;;12.88;100.00
40612;BME280;26317;44.894;20.286;2022-10-31T06:09:46;101508.59;;;12.86;100.00
40612;BME280;26317;44.894;20.286;2022-10-31T06:12:39;101520.44;;;12.85;100.00
40612;BME280;26317;44.894;20.286;2022-10-31T06:15:23;101511.28;;;12.86;100.00
40612;BME280;26317;44.894;20.286;2022-10-31T06:18:05;101509.69;;;12.85;100.00
40612;BME280;26317;44.894;20.286;2022-10-31T06:21:09;101507.25;;;12.89;100.00
40612;BME280;26317;44.894;20.286;2022-10-31T06:24:04;101517.25;;;12.94;100.00
40612;BME280;26317;44.894;20.286;2022-10-31T06:27:05;101516.16;;;12.95;100.00
40612;BME280;26317;44.894;20.286;2022-10-31T06:29:57;101520.19;;;12.92;100.00
40612;BME280;26317;44.894;20.286;2022-10-31T06:32:51;101516.66;;;12.86;100.00
40612;BME280;26317;44.894;20.286;2022-10-31T06:35:28;101515.59;;;12.87;100.00
40612;BME280;26317;44.894;20.286;2022-10-31T06:38:25;101538.25;;;12.97;100.00
40612;BME280;26317;44.894;20.286;2022-10-31T06:41:21;101535.03;;;13.00;100.00
40612;BME280;26317;44.894;20.286;2022-10-31T06:44:14;101536.09;;;12.99;100.00
40612;BME280;26317;44.894;20.286;2022-10-31T06:47:02;101539.38;;;13.01;100.00
40612;BME280;26317;44.894;20.286;2022-10-31T06:49:58;101537.19;;;13.03;100.00
40612;BME280;26317;44.894;20.286;2022-10-31T06:52:57;101534.25;;;13.04;100.00
40612;BME280;26317;44.894;20.286;2022-10-31T06:55:32;101541.53;;;13.04;100.00
40612;BME280;26317;44.894;20.286;2022-10-31T06:58:08;101549.13;;;13.12;100.00
40612;BME280;26317;44.894;20.286;2022-10-31T07:01:01;101551.00;;;13.11;100.00
40612;BME280;26317;44.894;20.286;2022-10-31T07:03:51;101535.59;;;13.02;100.00
40612;BME280;26317;44.894;20.286;2022-10-31T07:06:34;101548.28;;;13.06;100.00
40612;BME280;26317;44.894;20.286;2022-10-31T07:09:53;101542.59;;;13.03;100.00
40612;BME280;26317;44.894;20.286;2022-10-31T07:12:51;101547.75;;;13.09;100.00
40612;BME280;26317;44.894;20.286;2022-10-31T07:15:32;101559.66;;;13.13;100.00
40612;BME280;26317;44.894;20.286;2022-10-31T07:18:51;101552.91;;;13.16;100.00
40612;BME280;26317;44.894;20.286;2022-10-31T07:21:44;101558.88;;;13.18;100.00
40612;BME280;26317;44.894;20.286;2022-10-31T07:24:21;101552.41;;;13.19;100.00
40612;BME280;26317;44.894;20.286;2022-10-31T07:30:33;101556.75;;;13.25;100.00
40612;BME280;26317;44.894;20.286;2022-10-31T07:33:10;101553.47;;;13.18;100.00
40612;BME280;26317;44.894;20.286;2022-10-31T07:36:20;101557.00;;;13.18;100.00
40612;BME280;26317;44.894;20.286;2022-10-31T07:38:55;101550.28;;;13.26;100.00
40612;BME280;26317;44.894;20.286;2022-10-31T07:41:31;101553.25;;;13.29;100.00
40612;BME280;26317;44.894;20.286;2022-10-31T07:44:07;101552.47;;;13.34;100.00
40612;BME280;26317;44.894;20.286;2022-10-31T07:47:12;101549.78;;;13.34;100.00
40612;BME280;26317;44.894;20.286;2022-10-31T07:50:29;101544.94;;;13.41;100.00
40612;BME280;26317;44.894;20.286;2022-10-31T07:53:32;101544.94;;;13.41;100.00
40612;BME280;26317;44.894;20.286;2022-10-31T07:56:24;101550.59;;;13.45;100.00
40612;BME280;26317;44.894;20.286;2022-10-31T07:58:54;101548.44;;;13.42;100.00
40612;BME280;26317;44.894;20.286;2022-10-31T08:01:31;101540.91;;;13.49;100.00
40612;BME280;26317;44.894;20.286;2022-10-31T08:04:30;101541.72;;;13.49;100.00
40612;BME280;26317;44.894;20.286;2022-10-31T08:07:45;101543.91;;;13.52;100.00
40612;BME280;26317;44.894;20.286;2022-10-31T08:10:26;101537.44;;;13.48;100.00
40612;BME280;26317;44.894;20.286;2022-10-31T08:13:14;101534.19;;;13.51;100.00
40612;BME280;26317;44.894;20.286;2022-10-31T08:15:51;101526.66;;;13.48;100.00
40612;BME280;26317;44.894;20.286;2022-10-31T08:18:27;101533.94;;;13.58;100.00
40612;BME280;26317;44.894;20.286;2022-10-31T08:21:09;101511.28;;;13.44;100.00
40612;BME280;26317;44.894;20.286;2022-10-31T08:23:48;101542.03;;;13.63;100.00
40612;BME280;26317;44.894;20.286;2022-10-31T08:26:35;101533.44;;;13.61;100.00
40612;BME280;26317;44.894;20.286;2022-10-31T08:29:14;101542.31;;;13.66;100.00
40612;BME280;26317;44.894;20.286;2022-10-31T08:32:00;101530.47;;;13.67;100.00
40612;BME280;26317;44.894;20.286;2022-10-31T08:35:02;101530.47;;;13.72;100.00
40612;BME280;26317;44.894;20.286;2022-10-31T08:37:39;101531.81;;;13.75;100.00
40612;BME280;26317;44.894;20.286;2022-10-31T08:40:11;101540.72;;;13.75;100.00
40612;BME280;26317;44.894;20.286;2022-10-31T08:42:54;101539.91;;;13.75;100.00
40612;BME280;26317;44.894;20.286;2022-10-31T08:45:32;101541.00;;;13.79;100.00
40612;BME280;26317;44.894;20.286;2022-10-31T08:48:20;101525.34;;;13.71;100.00
40612;BME280;26317;44.894;20.286;2022-10-31T08:50:59;101536.69;;;13.73;100.00
40612;BME280;26317;44.894;20.286;2022-10-31T08:53:33;101542.34;;;13.76;100.00
40612;BME280;26317;44.894;20.286;2022-10-31T08:56:40;101542.06;;;13.78;100.00
40612;BME280;26317;44.894;20.286;2022-10-31T08:59:32;101539.91;;;13.80;100.00
40612;BME280;26317;44.894;20.286;2022-10-31T09:02:32;101541.25;;;13.82;100.00
40612;BME280;26317;44.894;20.286;2022-10-31T09:05:14;101541.84;;;13.90;100.00
40612;BME280;26317;44.894;20.286;2022-10-31T09:07:44;101546.13;;;13.96;100.00
40612;BME280;26317;44.894;20.286;2022-10-31T09:10:13;101545.34;;;14.00;100.00
40612;BME280;26317;44.894;20.286;2022-10-31T09:12:55;101538.06;;;14.01;100.00
40612;BME280;26317;44.894;20.286;2022-10-31T09:15:50;101541.03;;;14.04;100.00
40612;BME280;26317;44.894;20.286;2022-10-31T09:18:33;101542.66;;;14.10;100.00
40612;BME280;26317;44.894;20.286;2022-10-31T09:21:05;101547.78;;;14.17;100.00
40612;BME280;26317;44.894;20.286;2022-10-31T09:23:36;101538.59;;;14.18;100.00
40612;BME280;26317;44.894;20.286;2022-10-31T09:26:10;101543.97;;;14.28;99.59
40612;BME280;26317;44.894;20.286;2022-10-31T09:29:10;101536.44;;;14.30;99.22
40612;BME280;26317;44.894;20.286;2022-10-31T09:31:57;101504.09;;;14.15;99.66
40612;BME280;26317;44.894;20.286;2022-10-31T09:34:40;101536.47;;;14.40;99.72
40612;BME280;26317;44.894;20.286;2022-10-31T09:37:13;101538.06;;;14.46;99.25
40612;BME280;26317;44.894;20.286;2022-10-31T09:39:47;101528.09;;;14.47;97.83
40612;BME280;26317;44.894;20.286;2022-10-31T09:42:58;101539.69;;;14.52;97.38
40612;BME280;26317;44.894;20.286;2022-10-31T09:46:04;101538.06;;;14.51;96.92
40612;BME280;26317;44.894;20.286;2022-10-31T09:49:16;101541.88;;;14.40;97.17
40612;BME280;26317;44.894;20.286;2022-10-31T09:52:12;101552.13;;;14.43;97.03
40612;BME280;26317;44.894;20.286;2022-10-31T09:55:08;101545.66;;;14.44;97.32
40612;BME280;26317;44.894;20.286;2022-10-31T09:57:54;101537.25;;;14.41;97.44
40612;BME280;26317;44.894;20.286;2022-10-31T10:00:31;101542.38;;;14.57;97.60
40612;BME280;26317;44.894;20.286;2022-10-31T10:03:23;101539.16;;;14.60;97.94
40612;BME280;26317;44.894;20.286;2022-10-31T10:06:21;101543.19;;;14.68;96.94
40612;BME280;26317;44.894;20.286;2022-10-31T10:09:25;101541.81;;;14.81;96.69
40612;BME280;26317;44.894;20.286;2022-10-31T10:12:59;101514.03;;;14.60;96.57
40612;BME280;26317;44.894;20.286;2022-10-31T10:16:14;101536.41;;;14.81;95.90
40612;BME280;26317;44.894;20.286;2022-10-31T10:19:18;101531.81;;;14.76;96.11
40612;BME280;26317;44.894;20.286;2022-10-31T10:22:03;101531.31;;;14.69;95.93
40612;BME280;26317;44.894;20.286;2022-10-31T10:24:55;101536.41;;;14.70;96.19
40612;BME280;26317;44.894;20.286;2022-10-31T10:27:41;101531.00;;;14.70;96.11
40612;BME280;26317;44.894;20.286;2022-10-31T10:30:21;101533.19;;;14.68;95.81
40612;BME280;26317;44.894;20.286;2022-10-31T10:33:03;101529.94;;;14.77;96.93
40612;BME280;26317;44.894;20.286;2022-10-31T10:35:43;101527.75;;;14.84;97.98
40612;BME280;26317;44.894;20.286;2022-10-31T10:38:31;101523.41;;;14.93;97.16
40612;BME280;26317;44.894;20.286;2022-10-31T10:41:09;101526.09;;;14.98;96.23
40612;BME280;26317;44.894;20.286;2022-10-31T10:44:00;101529.31;;;15.00;96.51
40612;BME280;26317;44.894;20.286;2022-10-31T10:46:47;101523.91;;;15.00;95.29
40612;BME280;26317;44.894;20.286;2022-10-31T10:49:40;101526.34;;;15.01;94.95
40612;BME280;26317;44.894;20.286;2022-10-31T10:52:27;101515.25;;;15.03;94.72
40612;BME280;26317;44.894;20.286;2022-10-31T10:55:21;101520.38;;;15.04;94.90
40612;BME280;26317;44.894;20.286;2022-10-31T10:58:02;101517.09;;;15.12;94.34
40612;BME280;26317;44.894;20.286;2022-10-31T11:00:34;101512.28;;;15.04;93.61
40612;BME280;26317;44.894;20.286;2022-10-31T11:03:09;101500.13;;;15.02;93.73
40612;BME280;26317;44.894;20.286;2022-10-31T11:05:50;101505.47;;;15.12;94.84
40612;BME280;26317;44.894;20.286;2022-10-31T11:08:30;101505.53;;;15.07;93.80
40612;BME280;26317;44.894;20.286;2022-10-31T11:11:27;101502.81;;;15.07;94.38
40612;BME280;26317;44.894;20.286;2022-10-31T11:14:03;101494.72;;;15.02;93.46
40612;BME280;26317;44.894;20.286;2022-10-31T11:16:40;101499.00;;;15.13;92.95
40612;BME280;26317;44.894;20.286;2022-10-31T11:19:21;101490.38;;;15.11;93.18
40612;BME280;26317;44.894;20.286;2022-10-31T11:22:05;101490.06;;;15.17;94.06
40612;BME280;26317;44.894;20.286;2022-10-31T11:24:41;101485.72;;;15.16;93.43
40612;BME280;26317;44.894;20.286;2022-10-31T11:27:25;101489.78;;;15.19;94.11
40612;BME280;26317;44.894;20.286;2022-10-31T11:30:14;101484.31;;;15.29;93.68
40612;BME280;26317;44.894;20.286;2022-10-31T11:32:57;101463.78;;;15.28;92.82
40612;BME280;26317;44.894;20.286;2022-10-31T11:35:31;101476.97;;;15.40;92.89
40612;BME280;26317;44.894;20.286;2022-10-31T11:38:20;101471.78;;;15.48;93.11
40612;BME280;26317;44.894;20.286;2022-10-31T11:40:58;101469.84;;;15.59;92.84
40612;BME280;26317;44.894;20.286;2022-10-31T11:43:49;101460.34;;;15.61;91.79
40612;BME280;26317;44.894;20.286;2022-10-31T11:46:37;101457.06;;;15.70;91.87
40612;BME280;26317;44.894;20.286;2022-10-31T11:49:18;101459.16;;;15.78;91.48
40612;BME280;26317;44.894;20.286;2022-10-31T11:51:54;101454.22;;;15.85;91.40
40612;BME280;26317;44.894;20.286;2022-10-31T11:54:32;101455.59;;;15.82;90.01
40612;BME280;26317;44.894;20.286;2022-10-31T11:57:28;101452.63;;;15.84;90.31
40612;BME280;26317;44.894;20.286;2022-10-31T12:00:27;101447.16;;;15.89;91.18
40612;BME280;26317;44.894;20.286;2022-10-31T12:03:13;101441.72;;;15.94;90.96
40612;BME280;26317;44.894;20.286;2022-10-31T12:05:55;101435.91;;;16.05;90.75
40612;BME280;26317;44.894;20.286;2022-10-31T12:08:36;101418.03;;;16.09;90.49
40612;BME280;26317;44.894;20.286;2022-10-31T12:11:47;101433.59;;;16.23;90.22
40612;BME280;26317;44.894;20.286;2022-10-31T12:14:31;101440.78;;;16.32;88.58
40612;BME280;26317;44.894;20.286;2022-10-31T12:17:20;101446.97;;;16.38;87.85
40612;BME280;26317;44.894;20.286;2022-10-31T12:20:20;101435.16;;;16.52;87.28
40612;BME280;26317;44.894;20.286;2022-10-31T12:23:15;101422.94;;;16.55;86.63
40612;BME280;26317;44.894;20.286;2022-10-31T12:25:55;101422.25;;;16.44;85.80
40612;BME280;26317;44.894;20.286;2022-10-31T12:28:54;101427.25;;;16.32;86.57
40612;BME280;26317;44.894;20.286;2022-10-31T12:31:55;101429.22;;;16.27;86.52
40612;BME280;26317;44.894;20.286;2022-10-31T12:37:51;101427.59;;;16.49;86.78
40612;BME280;26317;44.894;20.286;2022-10-31T12:40:56;101435.38;;;16.61;86.75
40612;BME280;26317;44.894;20.286;2022-10-31T12:43:50;101423.72;;;16.61;85.48
40612;BME280;26317;44.894;20.286;2022-10-31T12:46:48;101435.13;;;16.58;85.79
40612;BME280;26317;44.894;20.286;2022-10-31T12:49:58;101439.91;;;16.66;86.32
40612;BME280;26317;44.894;20.286;2022-10-31T12:52:48;101433.34;;;16.72;86.71
40612;BME280;26317;44.894;20.286;2022-10-31T12:55:41;101441.34;;;16.82;86.10
40612;BME280;26317;44.894;20.286;2022-10-31T12:58:21;101440.22;;;16.83;85.78
40612;BME280;26317;44.894;20.286;2022-10-31T13:01:29;101427.88;;;16.77;85.97
40612;BME280;26317;44.894;20.286;2022-10-31T13:04:14;101434.91;;;16.78;85.97
40612;BME280;26317;44.894;20.286;2022-10-31T13:07:08;101428.31;;;16.84;85.79
40612;BME280;26317;44.894;20.286;2022-10-31T13:09:52;101430.97;;;16.89;85.62
40612;BME280;26317;44.894;20.286;2022-10-31T13:12:31;101430.38;;;16.92;84.22
40612;BME280;26317;44.894;20.286;2022-10-31T13:15:19;101423.22;;;17.01;84.46
40612;BME280;26317;44.894;20.286;2022-10-31T13:18:09;101429.06;;;16.89;84.99
40612;BME280;26317;44.894;20.286;2022-10-31T13:20:48;101430.75;;;17.04;85.28
40612;BME280;26317;44.894;20.286;2022-10-31T13:23:40;101417.88;;;17.15;84.51
40612;BME280;26317;44.894;20.286;2022-10-31T13:26:18;101412.06;;;17.21;83.87
40612;BME280;26317;44.894;20.286;2022-10-31T13:28:59;101416.13;;;17.24;82.98
40612;BME280;26317;44.894;20.286;2022-10-31T13:31:51;101417.94;;;17.28;82.47
40612;BME280;26317;44.894;20.286;2022-10-31T13:34:28;101409.72;;;17.33;82.28
40612;BME280;26317;44.894;20.286;2022-10-31T13:37:28;101410.31;;;17.30;82.39
40612;BME280;26317;44.894;20.286;2022-10-31T13:40:27;101407.59;;;17.30;82.62
40612;BME280;26317;44.894;20.286;2022-10-31T13:43:30;101413.56;;;17.32;83.20
40612;BME280;26317;44.894;20.286;2022-10-31T13:46:21;101407.88;;;17.29;82.99
40612;BME280;26317;44.894;20.286;2022-10-31T13:48:52;101409.28;;;17.26;82.79
40612;BME280;26317;44.894;20.286;2022-10-31T13:51:28;101398.59;;;17.16;82.26
40612;BME280;26317;44.894;20.286;2022-10-31T13:54:23;101402.41;;;17.15;83.10
40612;BME280;26317;44.894;20.286;2022-10-31T13:57:06;101401.41;;;17.11;83.19
40612;BME280;26317;44.894;20.286;2022-10-31T13:59:38;101397.41;;;17.03;83.49
40612;BME280;26317;44.894;20.286;2022-10-31T14:02:19;101400.72;;;17.00;84.16
40612;BME280;26317;44.894;20.286;2022-10-31T14:04:57;101385.38;;;16.91;84.09
40612;BME280;26317;44.894;20.286;2022-10-31T14:07:52;101391.34;;;16.93;84.21
40612;BME280;26317;44.894;20.286;2022-10-31T14:10:28;101398.88;;;16.96;84.51
40612;BME280;26317;44.894;20.286;2022-10-31T14:13:15;101399.47;;;16.93;84.83
40612;BME280;26317;44.894;20.286;2022-10-31T14:15:59;101389.78;;;16.87;84.67
40612;BME280;26317;44.894;20.286;2022-10-31T14:18:56;101396.22;;;16.91;84.63
40612;BME280;26317;44.894;20.286;2022-10-31T14:21:31;101397.91;;;16.87;84.62
40612;BME280;26317;44.894;20.286;2022-10-31T14:24:15;101391.56;;;16.78;84.78
40612;BME280;26317;44.894;20.286;2022-10-31T14:26:54;101405.44;;;16.71;85.24
40612;BME280;26317;44.894;20.286;2022-10-31T14:29:36;101402.88;;;16.61;85.28